Time,TemperatureF,DewpointF,PressureIn,WindDirection,WindDirectionDegrees,WindSpeedMPH,WindSpeedGustMPH,Humidity,HourlyPrecipIn,Conditions,Clouds,dailyrainin,SoftwareType,DateUTC
2015-02-26 00:02:00,53.8,53.5,29.71,ESE,112,0.0,0.0,99,0.00,CLR,,0.00,WeatherDisplay:10.37,2015-02-26 08:02:00,
2015-02-26 00:07:00,53.6,53.3,29.71,ESE,112,2.2,2.3,99,0.00,CLR,,0.00,WeatherDisplay:10.37,2015-02-26 08:07:00,
2015-02-26 00:12:00,53.4,53.1,29.71,ESE,112,1.2,1.2,99,0.00,CLR,,0.00,WeatherDisplay:10.37,2015-02-26 08:12:00,
2015-02-26 00:17:00,53.2,52.9,29.71,ESE,112,2.3,2.3,99,0.00,CLR,,0.00,WeatherDisplay:10.37,2015-02-26 08:17:00,
2015-02-26 00:22:00,53.2,52.7,29.71,ESE,112,2.3,2.3,98,0.00,CLR,,0.00,WeatherDisplay:10.37,2015-02-26 08:22:00,
2015-02-26 00:27:00,53.1,52.6,29.71,East,90,1.7,1.7,98,0.00,CLR,,0.00,WeatherDisplay:10.37,2015-02-26 08:27:00,
2015-02-26 00:32:00,53.1,52.6,29.71,East,90,1.7,1.7,98,0.00,CLR,,0.00,WeatherDisplay:10.37,2015-02-26 08:32:00,
2015-02-26 00:37:00,52.9,52.4,29.71,East,90,1.7,1.7,98,0.00,CLR,,0.00,WeatherDisplay:10.37,2015-02-26 08:37:00,
2015-02-26 00:42:00,52.7,52.2,29.71,ESE,112,0.0,0.0,98,0.00,CLR,,0.00,WeatherDisplay:10.37,2015-02-26 08:42:00,
2015-02-26 00:47:00,52.3,51.5,29.71,ESE,112,2.3,2.3,97,0.00,CLR,,0.00,WeatherDisplay:10.37,2015-02-26 08:47:00,
2015-02-26 00:52:00,52.2,51.4,29.71,ESE,112,0.0,0.0,97,0.00,CLR,,0.00,WeatherDisplay:10.37,2015-02-26 08:52:00,
2015-02-26 00:57:00,52.0,51.2,29.71,East,90,2.3,2.3,97,0.00,CLR,,0.00,WeatherDisplay:10.37,2015-02-26 08:57:00,
2015-02-26 01:02:00,52.0,51.2,29.71,NW,315,0.0,0.0,97,0.00,CLR,,0.00,WeatherDisplay:10.37,2015-02-26 09:02:00,
2015-02-26 01:07:00,51.6,50.8,29.71,East,90,0.0,0.0,97,0.00,CLR,,0.00,WeatherDisplay:10.37,2015-02-26 09:07:00,
2015-02-26 01:12:00,51.3,50.8,29.71,SSE,158,0.0,0.0,98,0.00,CLR,,0.00,WeatherDisplay:10.37,2015-02-26 09:12:00,
2015-02-26 01:17:00,51.1,50.6,29.71,ESE,112,0.0,0.0,98,0.00,CLR,,0.00,WeatherDisplay:10.37,2015-02-26 09:17:00,
2015-02-26 01:22:00,50.7,50.2,29.71,East,90,1.2,1.2,98,0.00,CLR,,0.00,WeatherDisplay:10.37,2015-02-26 09:22:00,
2015-02-26 01:27:00,50.7,50.2,29.71,ESE,112,0.0,0.0,98,0.00,CLR,,0.00,WeatherDisplay:10.37,2015-02-26 09:27:00,
2015-02-26 01:32:00,50.7,50.2,29.71,ESE,112,1.2,1.2,98,0.00,CLR,,0.00,WeatherDisplay:10.37,2015-02-26 09:32:00,
2015-02-26 01:37:00,50.2,49.7,29.71,ESE,112,2.3,2.3,98,0.00,CLR,,0.00,WeatherDisplay:10.37,2015-02-26 09:37:00,
2015-02-26 01:42:00,50.2,49.4,29.71,NE,45,1.2,1.5,97,0.00,CLR,,0.00,WeatherDisplay:10.37,2015-02-26 09:42:00,
2015-02-26 01:47:00,50.2,49.4,29.71,East,90,0.0,0.0,97,0.00,CLR,,0.00,WeatherDisplay:10.37,2015-02-26 09:47:00,
2015-02-26 01:52:00,50.2,49.7,29.71,East,90,0.0,0.0,98,0.00,CLR,,0.00,WeatherDisplay:10.37,2015-02-26 09:52:00,
2015-02-26 01:57:00,50.0,49.5,29.71,NE,45,1.2,1.2,98,0.00,CLR,,0.00,WeatherDisplay:10.37,2015-02-26 09:57:00,
2015-02-26 02:02:00,49.8,49.3,29.71,NNW,338,0.0,0.0,98,0.00,CLR,,0.00,WeatherDisplay:10.37,2015-02-26 10:02:00,
2015-02-26 02:07:00,49.6,49.1,29.71,NNE,22,0.0,0.0,98,0.00,CLR,,0.00,WeatherDisplay:10.37,2015-02-26 10:07:00,
2015-02-26 02:12:00,49.1,48.3,29.71,NNW,338,0.0,0.0,97,0.00,CLR,,0.00,WeatherDisplay:10.37,2015-02-26 10:12:00,
2015-02-26 02:17:00,48.7,48.4,29.71,NNW,338,2.3,2.3,99,0.00,CLR,,0.00,WeatherDisplay:10.37,2015-02-26 10:17:00,
2015-02-26 02:22:00,48.7,48.4,29.71,North,360,2.3,2.4,99,0.00,CLR,,0.00,WeatherDisplay:10.37,2015-02-26 10:22:00,
2015-02-26 02:27:00,48.6,48.3,29.71,North,360,1.2,1.2,99,0.00,CLR,,0.00,WeatherDisplay:10.37,2015-02-26 10:27:00,
2015-02-26 02:32:00,48.6,48.3,29.71,East,90,0.0,0.0,99,0.00,CLR,,0.00,WeatherDisplay:10.37,2015-02-26 10:32:00,
2015-02-26 02:37:00,48.6,48.3,29.71,East,90,2.3,2.3,99,0.00,CLR,,0.00,WeatherDisplay:10.37,2015-02-26 10:37:00,
2015-02-26 02:42:00,48.7,48.4,29.71,ENE,68,2.3,2.3,99,0.00,CLR,,0.00,WeatherDisplay:10.37,2015-02-26 10:42:00,
2015-02-26 02:47:00,49.3,49.0,29.71,ENE,68,2.7,2.7,99,0.00,CLR,,0.00,WeatherDisplay:10.37,2015-02-26 10:47:00,
2015-02-26 02:52:00,49.8,49.0,29.71,East,90,2.3,2.5,97,0.00,CLR,,0.00,WeatherDisplay:10.37,2015-02-26 10:52:00,
2015-02-26 02:57:00,49.8,49.0,29.71,ESE,112,3.2,3.2,97,0.00,CLR,,0.00,WeatherDisplay:10.37,2015-02-26 10:57:00,
2015-02-26 03:02:00,49.8,48.7,29.71,ESE,112,1.2,1.2,96,0.00,CLR,,0.00,WeatherDisplay:10.37,2015-02-26 11:02:00,
2015-02-26 03:07:00,49.8,48.7,29.71,ESE,112,3.5,3.5,96,0.00,CLR,,0.00,WeatherDisplay:10.37,2015-02-26 11:07:00,
2015-02-26 03:12:00,49.8,48.4,29.71,ESE,112,3.5,3.5,95,0.00,CLR,,0.00,WeatherDisplay:10.37,2015-02-26 11:12:00,
2015-02-26 03:17:00,50.0,48.3,29.71,ENE,68,0.0,0.0,94,0.00,CLR,,0.00,WeatherDisplay:10.37,2015-02-26 11:17:00,
2015-02-26 03:22:00,50.0,48.3,29.71,NNE,22,0.0,0.0,94,0.00,CLR,,0.00,WeatherDisplay:10.37,2015-02-26 11:22:00,
2015-02-26 03:27:00,50.0,48.3,29.71,NNE,22,2.3,2.3,94,0.00,CLR,,0.00,WeatherDisplay:10.37,2015-02-26 11:27:00,
2015-02-26 03:32:00,50.2,48.8,29.71,NE,45,1.7,1.7,95,0.00,CLR,,0.00,WeatherDisplay:10.37,2015-02-26 11:32:00,
2015-02-26 03:37:00,50.7,49.0,29.71,NE,45,2.3,2.3,94,0.00,CLR,,0.00,WeatherDisplay:10.37,2015-02-26 11:37:00,
2015-02-26 03:42:00,51.1,49.1,29.71,NNE,22,3.5,3.5,93,0.00,CLR,,0.00,WeatherDisplay:10.37,2015-02-26 11:42:00,
2015-02-26 03:47:00,51.4,49.4,29.71,ENE,68,2.3,2.3,93,0.00,CLR,,0.00,WeatherDisplay:10.37,2015-02-26 11:47:00,
2015-02-26 03:52:00,51.6,49.4,29.71,East,90,1.7,1.7,92,0.00,CLR,,0.00,WeatherDisplay:10.37,2015-02-26 11:52:00,
2015-02-26 03:57:00,52.0,49.7,29.71,East,90,2.3,2.3,92,0.00,CLR,,0.00,WeatherDisplay:10.37,2015-02-26 11:57:00,
2015-02-26 04:02:00,52.2,50.2,29.71,ESE,112,1.2,1.2,93,0.00,CLR,,0.00,WeatherDisplay:10.37,2015-02-26 12:02:00,
2015-02-26 04:07:00,52.3,50.6,29.71,East,90,2.3,2.3,94,0.00,CLR,,0.00,WeatherDisplay:10.37,2015-02-26 12:07:00,
2015-02-26 04:12:00,52.5,51.1,29.71,SE,135,1.2,0.0,95,0.00,CLR,,0.00,WeatherDisplay:10.37,2015-02-26 12:12:00,
2015-02-26 04:17:00,52.5,51.4,29.71,NE,45,2.3,2.3,96,0.00,CLR,,0.00,WeatherDisplay:10.37,2015-02-26 12:17:00,
2015-02-26 04:22:00,52.5,51.7,29.71,NNE,22,2.7,2.7,97,0.00,CLR,,0.00,WeatherDisplay:10.37,2015-02-26 12:22:00,
2015-02-26 04:27:00,52.5,51.1,29.71,NE,45,2.3,2.3,95,0.00,CLR,,0.00,WeatherDisplay:10.37,2015-02-26 12:27:00,
2015-02-26 04:32:00,52.3,50.6,29.71,NNE,22,1.2,1.2,94,0.00,CLR,,0.00,WeatherDisplay:10.37,2015-02-26 12:32:00,
2015-02-26 04:37:00,52.2,50.5,29.71,ENE,68,1.7,1.7,94,0.00,CLR,,0.00,WeatherDisplay:10.37,2015-02-26 12:37:00,
2015-02-26 04:42:00,52.2,50.2,29.71,East,90,2.3,2.3,93,0.00,CLR,,0.00,WeatherDisplay:10.37,2015-02-26 12:42:00,
2015-02-26 04:47:00,52.2,50.2,29.71,East,90,3.5,3.5,93,0.00,CLR,,0.00,WeatherDisplay:10.37,2015-02-26 12:47:00,
2015-02-26 04:52:00,52.2,49.9,29.71,ENE,68,3.5,3.5,92,0.00,CLR,,0.00,WeatherDisplay:10.37,2015-02-26 12:52:00,
2015-02-26 04:57:00,52.3,49.8,29.71,ENE,68,2.3,2.7,91,0.00,CLR,,0.00,WeatherDisplay:10.37,2015-02-26 12:57:00,
2015-02-26 05:02:00,52.3,49.8,29.71,East,90,1.7,1.7,91,0.00,CLR,,0.00,WeatherDisplay:10.37,2015-02-26 13:02:00,
2015-02-26 05:07:00,52.3,50.0,29.71,East,90,2.3,2.5,92,0.00,CLR,,0.00,WeatherDisplay:10.37,2015-02-26 13:07:00,
2015-02-26 05:12:00,52.3,50.3,29.71,NE,45,0.0,0.0,93,0.00,CLR,,0.00,WeatherDisplay:10.37,2015-02-26 13:12:00,
2015-02-26 05:17:00,52.3,50.3,29.71,NE,45,1.2,1.4,93,0.00,CLR,,0.00,WeatherDisplay:10.37,2015-02-26 13:17:00,
2015-02-26 05:22:00,52.5,50.5,29.71,NNE,22,2.3,2.3,93,0.00,CLR,,0.00,WeatherDisplay:10.37,2015-02-26 13:22:00,
2015-02-26 05:27:00,52.5,50.5,29.71,ENE,68,3.5,3.5,93,0.00,CLR,,0.00,WeatherDisplay:10.37,2015-02-26 13:27:00,
2015-02-26 05:32:00,52.5,50.2,29.71,NNE,22,3.5,3.5,92,0.00,CLR,,0.00,WeatherDisplay:10.37,2015-02-26 13:32:00,
2015-02-26 05:37:00,52.7,50.4,29.71,NNE,22,1.2,1.6,92,0.00,CLR,,0.00,WeatherDisplay:10.37,2015-02-26 13:37:00,
2015-02-26 05:42:00,52.7,50.4,29.71,North,360,1.2,1.2,92,0.00,CLR,,0.00,WeatherDisplay:10.37,2015-02-26 13:42:00,
2015-02-26 05:47:00,52.9,50.9,29.71,West,270,1.2,1.2,93,0.00,CLR,,0.00,WeatherDisplay:10.37,2015-02-26 13:47:00,
2015-02-26 05:52:00,53.1,51.1,29.71,NE,45,3.5,3.5,93,0.00,CLR,,0.00,WeatherDisplay:10.37,2015-02-26 13:52:00,
2015-02-26 05:57:00,53.2,51.2,29.71,WNW,292,0.0,0.0,93,0.00,CLR,,0.00,WeatherDisplay:10.37,2015-02-26 13:57:00,
2015-02-26 06:02:00,53.2,51.2,29.71,NE,45,3.5,3.5,93,0.00,CLR,,0.00,WeatherDisplay:10.37,2015-02-26 14:02:00,
2015-02-26 06:07:00,53.4,51.4,29.71,NE,45,2.7,2.7,93,0.00,CLR,,0.00,WeatherDisplay:10.37,2015-02-26 14:07:00,
2015-02-26 06:12:00,53.4,51.4,29.71,NNW,338,2.3,2.3,93,0.00,CLR,,0.00,WeatherDisplay:10.37,2015-02-26 14:12:00,
2015-02-26 06:17:00,53.4,51.4,29.71,WNW,292,0.0,0.0,93,0.00,CLR,,0.00,WeatherDisplay:10.37,2015-02-26 14:17:00,
2015-02-26 06:22:00,53.4,51.4,29.71,SE,135,0.0,0.0,93,0.00,CLR,,0.00,WeatherDisplay:10.37,2015-02-26 14:22:00,
2015-02-26 06:27:00,53.2,51.5,29.71,SE,135,0.0,0.0,94,0.00,CLR,,0.00,WeatherDisplay:10.37,2015-02-26 14:27:00,
2015-02-26 06:32:00,53.2,51.5,29.71,East,90,2.3,2.3,94,0.00,CLR,,0.00,WeatherDisplay:10.37,2015-02-26 14:32:00,
2015-02-26 06:37:00,53.2,51.5,29.71,East,90,2.3,2.3,94,0.00,CLR,,0.00,WeatherDisplay:10.37,2015-02-26 14:37:00,
2015-02-26 06:42:00,53.2,51.5,29.71,East,90,3.5,3.5,94,0.00,CLR,,0.00,WeatherDisplay:10.37,2015-02-26 14:42:00,
2015-02-26 06:47:00,53.2,51.5,29.71,East,90,2.3,2.3,94,0.00,CLR,,0.00,WeatherDisplay:10.37,2015-02-26 14:47:00,
2015-02-26 06:52:00,53.4,51.7,29.71,ESE,112,2.7,2.7,94,0.00,CLR,,0.00,WeatherDisplay:10.37,2015-02-26 14:52:00,
2015-02-26 06:57:00,53.6,51.6,29.71,ESE,112,2.7,2.7,93,0.00,CLR,,0.00,WeatherDisplay:10.37,2015-02-26 14:57:00,
2015-02-26 07:02:00,54.1,52.1,29.71,ESE,112,3.5,3.5,93,0.00,CLR,,0.00,WeatherDisplay:10.37,2015-02-26 15:02:00,
2015-02-26 07:07:00,54.3,52.3,29.71,East,90,2.7,2.7,93,0.00,CLR,,0.00,WeatherDisplay:10.37,2015-02-26 15:07:00,
2015-02-26 07:12:00,54.7,52.7,29.71,NE,45,0.0,0.0,93,0.00,CLR,,0.00,WeatherDisplay:10.37,2015-02-26 15:12:00,
2015-02-26 07:17:00,55.0,53.0,29.71,East,90,2.3,2.3,93,0.00,CLR,,0.00,WeatherDisplay:10.37,2015-02-26 15:17:00,
2015-02-26 07:22:00,55.4,53.7,29.71,ESE,112,1.2,1.2,94,0.00,CLR,,0.00,WeatherDisplay:10.37,2015-02-26 15:22:00,
2015-02-26 07:27:00,55.8,54.1,29.71,ESE,112,2.7,2.7,94,0.00,CLR,,0.00,WeatherDisplay:10.37,2015-02-26 15:27:00,
2015-02-26 07:32:00,56.1,54.7,29.71,SE,135,3.5,3.5,95,0.00,CLR,,0.00,WeatherDisplay:10.37,2015-02-26 15:32:00,
2015-02-26 07:37:00,56.5,55.1,29.71,ESE,112,2.3,2.3,95,0.00,CLR,,0.00,WeatherDisplay:10.37,2015-02-26 15:37:00,
2015-02-26 07:42:00,56.8,55.1,29.71,SE,135,4.6,4.6,94,0.00,CLR,,0.00,WeatherDisplay:10.37,2015-02-26 15:42:00,
2015-02-26 07:47:00,57.4,55.1,29.71,East,90,4.2,4.2,92,0.00,CLR,,0.00,WeatherDisplay:10.37,2015-02-26 15:47:00,
2015-02-26 07:52:00,57.6,55.3,29.71,East,90,4.6,4.6,92,0.00,CLR,,0.00,WeatherDisplay:10.37,2015-02-26 15:52:00,
2015-02-26 07:57:00,58.1,56.1,29.71,ESE,112,4.2,4.2,93,0.00,CLR,,0.00,WeatherDisplay:10.37,2015-02-26 15:57:00,
2015-02-26 08:02:00,59.0,56.7,29.71,ESE,112,3.7,3.7,92,0.00,CLR,,0.00,WeatherDisplay:10.37,2015-02-26 16:02:00,
2015-02-26 08:07:00,60.4,56.8,29.71,SE,135,3.5,3.5,88,0.00,CLR,,0.00,WeatherDisplay:10.37,2015-02-26 16:07:00,
2015-02-26 08:13:00,60.4,56.8,29.71,SSE,158,3.7,3.7,88,0.00,CLR,,0.00,WeatherDisplay:10.37,2015-02-26 16:13:00,
2015-02-26 08:18:00,60.6,56.7,29.71,East,90,1.7,1.7,87,0.00,CLR,,0.00,WeatherDisplay:10.37,2015-02-26 16:18:00,
2015-02-26 08:23:00,61.2,57.3,29.71,SSE,158,3.5,3.5,87,0.00,CLR,,0.00,WeatherDisplay:10.37,2015-02-26 16:23:00,
2015-02-26 08:28:00,61.3,57.4,29.71,ESE,112,3.7,3.7,87,0.00,CLR,,0.00,WeatherDisplay:10.37,2015-02-26 16:28:00,
2015-02-26 08:33:00,62.1,57.9,29.71,SSW,202,3.7,3.7,86,0.00,CLR,,0.00,WeatherDisplay:10.37,2015-02-26 16:33:00,
2015-02-26 08:38:00,63.0,57.8,29.71,SSE,158,4.6,4.6,83,0.00,CLR,,0.00,WeatherDisplay:10.37,2015-02-26 16:38:00,
2015-02-26 08:43:00,62.4,57.2,29.71,SSW,202,3.7,3.7,83,0.00,CLR,,0.00,WeatherDisplay:10.37,2015-02-26 16:43:00,
2015-02-26 08:48:00,62.8,57.2,29.71,North,360,2.7,2.7,82,0.00,CLR,,0.00,WeatherDisplay:10.37,2015-02-26 16:48:00,
2015-02-26 08:53:00,63.0,57.8,29.71,SSE,158,2.3,2.3,83,0.00,CLR,,0.00,WeatherDisplay:10.37,2015-02-26 16:53:00,
2015-02-26 08:58:00,63.5,57.9,29.71,ESE,112,3.7,3.7,82,0.00,CLR,,0.00,WeatherDisplay:10.37,2015-02-26 16:58:00,
2015-02-26 09:03:00,63.5,57.6,29.71,ENE,68,3.5,3.5,81,0.00,CLR,,0.00,WeatherDisplay:10.37,2015-02-26 17:03:00,
2015-02-26 09:08:00,62.6,57.4,29.71,South,180,3.5,3.5,83,0.00,CLR,,0.00,WeatherDisplay:10.37,2015-02-26 17:08:00,
2015-02-26 09:13:00,63.3,57.4,29.71,SSW,202,3.5,3.5,81,0.00,CLR,,0.00,WeatherDisplay:10.37,2015-02-26 17:13:00,
2015-02-26 09:18:00,64.0,57.7,29.71,SE,135,4.2,4.2,80,0.00,CLR,,0.00,WeatherDisplay:10.37,2015-02-26 17:18:00,
2015-02-26 09:23:00,64.8,57.8,29.71,South,180,3.5,3.5,78,0.00,CLR,,0.00,WeatherDisplay:10.37,2015-02-26 17:23:00,
2015-02-26 09:28:00,65.8,58.0,29.71,SW,225,1.2,1.2,76,0.00,CLR,,0.00,WeatherDisplay:10.37,2015-02-26 17:28:00,
2015-02-26 09:33:00,67.5,58.2,29.71,NNE,22,4.6,4.6,72,0.00,CLR,,0.00,WeatherDisplay:10.37,2015-02-26 17:33:00,
2015-02-26 09:38:00,66.6,58.1,29.71,ESE,112,3.5,3.5,74,0.00,CLR,,0.00,WeatherDisplay:10.37,2015-02-26 17:38:00,
2015-02-26 09:43:00,67.6,58.2,29.71,ESE,112,4.6,4.6,72,0.00,CLR,,0.00,WeatherDisplay:10.37,2015-02-26 17:43:00,
2015-02-26 09:48:00,68.4,57.8,29.71,ENE,68,3.5,3.5,69,0.00,CLR,,0.00,WeatherDisplay:10.37,2015-02-26 17:48:00,
2015-02-26 09:53:00,70.3,57.5,29.71,SSE,158,4.6,4.6,64,0.00,CLR,,0.00,WeatherDisplay:10.37,2015-02-26 17:53:00,
2015-02-26 09:58:00,69.8,58.3,29.71,East,90,6.8,6.8,67,0.00,CLR,,0.00,WeatherDisplay:10.37,2015-02-26 17:58:00,
2015-02-26 10:03:00,70.5,57.7,29.71,ESE,112,3.5,3.5,64,0.00,CLR,,0.00,WeatherDisplay:10.37,2015-02-26 18:03:00,
2015-02-26 10:08:00,70.2,57.0,29.71,ESE,112,3.5,3.5,63,0.00,CLR,,0.00,WeatherDisplay:10.37,2015-02-26 18:08:00,
2015-02-26 10:13:00,70.9,57.7,29.71,ESE,112,2.3,2.3,63,0.00,CLR,,0.00,WeatherDisplay:10.37,2015-02-26 18:13:00,
2015-02-26 10:18:00,73.2,57.1,29.71,East,90,2.3,2.3,57,0.00,CLR,,0.00,WeatherDisplay:10.37,2015-02-26 18:18:00,
2015-02-26 10:23:00,74.1,56.9,29.71,WSW,248,2.7,2.7,55,0.00,CLR,,0.00,WeatherDisplay:10.37,2015-02-26 18:23:00,
2015-02-26 10:28:00,74.3,56.6,29.71,SW,225,4.6,4.6,54,0.00,CLR,,0.00,WeatherDisplay:10.37,2015-02-26 18:28:00,
2015-02-26 10:33:00,73.9,56.2,29.71,SW,225,2.7,2.7,54,0.00,CLR,,0.00,WeatherDisplay:10.37,2015-02-26 18:33:00,
2015-02-26 10:38:00,74.5,56.8,29.71,WNW,292,2.3,2.3,54,0.00,CLR,,0.00,WeatherDisplay:10.37,2015-02-26 18:38:00,
2015-02-26 10:43:00,73.2,56.1,29.71,SSE,158,2.3,2.3,55,0.00,CLR,,0.00,WeatherDisplay:10.37,2015-02-26 18:43:00,
2015-02-26 10:48:00,73.6,55.9,29.71,SW,225,4.6,4.6,54,0.00,CLR,,0.00,WeatherDisplay:10.37,2015-02-26 18:48:00,
2015-02-26 10:53:00,72.7,56.1,29.71,SW,225,3.5,3.5,56,0.00,CLR,,0.00,WeatherDisplay:10.37,2015-02-26 18:53:00,
2015-02-26 10:58:00,74.7,56.9,29.71,SSE,158,2.7,2.7,54,0.00,CLR,,0.00,WeatherDisplay:10.37,2015-02-26 18:58:00,
2015-02-26 11:03:00,76.6,56.6,29.71,SSW,202,3.5,3.5,50,0.00,CLR,,0.00,WeatherDisplay:10.37,2015-02-26 19:03:00,
2015-02-26 11:08:00,75.9,56.5,29.71,West,270,2.7,2.7,51,0.00,CLR,,0.00,WeatherDisplay:10.37,2015-02-26 19:08:00,
2015-02-26 11:13:00,77.0,55.2,29.71,ESE,112,3.7,3.7,47,0.00,CLR,,0.00,WeatherDisplay:10.37,2015-02-26 19:13:00,
2015-02-26 11:18:00,76.6,54.3,29.71,ESE,112,2.3,2.3,46,0.00,CLR,,0.00,WeatherDisplay:10.37,2015-02-26 19:18:00,
2015-02-26 11:23:00,76.3,54.6,29.71,SSW,202,4.2,4.2,47,0.00,CLR,,0.00,WeatherDisplay:10.37,2015-02-26 19:23:00,
2015-02-26 11:28:00,72.5,53.9,29.71,SSE,158,3.5,3.5,52,0.00,CLR,,0.00,WeatherDisplay:10.37,2015-02-26 19:28:00,
2015-02-26 11:33:00,73.0,53.3,29.71,South,180,2.3,2.3,50,0.00,CLR,,0.00,WeatherDisplay:10.37,2015-02-26 19:33:00,
2015-02-26 11:38:00,74.1,53.7,29.71,NW,315,2.7,2.7,49,0.00,CLR,,0.00,WeatherDisplay:10.37,2015-02-26 19:38:00,
2015-02-26 11:43:00,72.5,54.4,29.71,SSW,202,6.9,6.9,53,0.00,CLR,,0.00,WeatherDisplay:10.37,2015-02-26 19:43:00,
2015-02-26 11:48:00,72.5,54.4,29.71,South,180,4.6,4.6,53,0.00,CLR,,0.00,WeatherDisplay:10.37,2015-02-26 19:48:00,
2015-02-26 11:53:00,71.2,53.2,29.71,SSW,202,5.8,5.8,53,0.00,CLR,,0.00,WeatherDisplay:10.37,2015-02-26 19:53:00,
2015-02-26 11:58:00,72.1,53.0,29.71,West,270,5.8,5.8,51,0.00,CLR,,0.00,WeatherDisplay:10.37,2015-02-26 19:58:00,
2015-02-26 12:03:00,72.7,53.5,29.71,SSW,202,4.6,4.6,51,0.00,CLR,,0.00,WeatherDisplay:10.37,2015-02-26 20:03:00,
2015-02-26 12:08:00,72.7,53.5,29.71,West,270,6.3,6.3,51,0.00,CLR,,0.00,WeatherDisplay:10.37,2015-02-26 20:08:00,
2015-02-26 12:13:00,70.5,56.4,29.71,WSW,248,8.1,8.1,61,0.00,CLR,,0.00,WeatherDisplay:10.37,2015-02-26 20:13:00,
2015-02-26 12:18:00,70.5,57.7,29.71,South,180,6.8,6.8,64,0.00,CLR,,0.00,WeatherDisplay:10.37,2015-02-26 20:18:00,
2015-02-26 12:23:00,71.1,57.9,29.71,SW,225,6.9,6.9,63,0.00,CLR,,0.00,WeatherDisplay:10.37,2015-02-26 20:23:00,
2015-02-26 12:28:00,71.1,57.9,29.71,WSW,248,6.9,6.9,63,0.00,CLR,,0.00,WeatherDisplay:10.37,2015-02-26 20:28:00,
2015-02-26 12:33:00,72.3,57.2,29.71,South,180,5.8,5.8,59,0.00,CLR,,0.00,WeatherDisplay:10.37,2015-02-26 20:33:00,
2015-02-26 12:38:00,72.3,57.2,29.71,WSW,248,5.8,5.8,59,0.00,CLR,,0.00,WeatherDisplay:10.37,2015-02-26 20:38:00,
2015-02-26 12:43:00,73.6,57.4,29.71,South,180,6.9,6.9,57,0.00,CLR,,0.00,WeatherDisplay:10.37,2015-02-26 20:43:00,
2015-02-26 12:48:00,72.3,57.2,29.71,SSW,202,8.1,8.1,59,0.00,CLR,,0.00,WeatherDisplay:10.37,2015-02-26 20:48:00,
2015-02-26 12:53:00,73.2,57.1,29.71,South,180,4.6,4.6,57,0.00,CLR,,0.00,WeatherDisplay:10.37,2015-02-26 20:53:00,
2015-02-26 12:58:00,71.2,57.1,29.71,SSW,202,6.9,6.9,61,0.00,CLR,,0.00,WeatherDisplay:10.37,2015-02-26 20:58:00,
2015-02-26 13:03:00,72.5,57.4,29.71,SSW,202,6.9,6.9,59,0.00,CLR,,0.00,WeatherDisplay:10.37,2015-02-26 21:03:00,
2015-02-26 13:08:00,73.0,57.8,29.71,SW,225,7.3,7.3,59,0.00,CLR,,0.00,WeatherDisplay:10.37,2015-02-26 21:08:00,
2015-02-26 13:13:00,71.1,56.0,29.71,SW,225,8.3,8.3,59,0.00,CLR,,0.00,WeatherDisplay:10.37,2015-02-26 21:13:00,
2015-02-26 13:18:00,72.5,56.4,29.71,SSW,202,8.3,8.3,57,0.00,CLR,,0.00,WeatherDisplay:10.37,2015-02-26 21:18:00,
2015-02-26 13:23:00,72.0,55.9,29.71,SW,225,5.8,5.8,57,0.00,CLR,,0.00,WeatherDisplay:10.37,2015-02-26 21:23:00,
2015-02-26 13:28:00,72.0,55.9,29.71,SSE,158,7.3,7.3,57,0.00,CLR,,0.00,WeatherDisplay:10.37,2015-02-26 21:28:00,
2015-02-26 13:33:00,72.3,55.2,29.71,SW,225,9.4,9.4,55,0.00,CLR,,0.00,WeatherDisplay:10.37,2015-02-26 21:33:00,
2015-02-26 13:38:00,72.3,55.2,29.71,SW,225,9.4,9.4,55,0.00,CLR,,0.00,WeatherDisplay:10.37,2015-02-26 21:38:00,
2015-02-26 13:43:00,72.0,54.9,29.71,WSW,248,5.8,5.8,55,0.00,CLR,,0.00,WeatherDisplay:10.37,2015-02-26 21:43:00,
2015-02-26 13:48:00,73.2,56.6,29.71,SSW,202,5.8,5.8,56,0.00,CLR,,0.00,WeatherDisplay:10.37,2015-02-26 21:48:00,
2015-02-26 13:53:00,71.1,55.6,29.71,SW,225,6.9,6.9,58,0.00,CLR,,0.00,WeatherDisplay:10.37,2015-02-26 21:53:00,
2015-02-26 13:58:00,71.6,55.6,29.71,SE,135,6.9,7.0,57,0.00,CLR,,0.00,WeatherDisplay:10.37,2015-02-26 21:58:00,
2015-02-26 14:03:00,70.7,56.1,29.71,South,180,8.1,8.1,60,0.00,CLR,,0.00,WeatherDisplay:10.37,2015-02-26 22:03:00,
2015-02-26 14:08:00,71.8,56.7,29.71,SSW,202,6.9,6.9,59,0.00,CLR,,0.00,WeatherDisplay:10.37,2015-02-26 22:08:00,
2015-02-26 14:13:00,70.3,55.8,29.71,SSW,202,6.9,6.9,60,0.00,CLR,,0.00,WeatherDisplay:10.37,2015-02-26 22:13:00,
2015-02-26 14:18:00,71.2,55.2,29.71,SW,225,6.3,6.3,57,0.00,CLR,,0.00,WeatherDisplay:10.37,2015-02-26 22:18:00,
2015-02-26 14:23:00,71.8,55.7,29.71,West,270,7.8,7.8,57,0.00,CLR,,0.00,WeatherDisplay:10.37,2015-02-26 22:23:00,
2015-02-26 14:28:00,72.3,56.2,29.71,South,180,6.9,6.9,57,0.00,CLR,,0.00,WeatherDisplay:10.37,2015-02-26 22:28:00,
2015-02-26 14:33:00,70.0,55.9,29.71,SW,225,6.9,6.9,61,0.00,CLR,,0.00,WeatherDisplay:10.37,2015-02-26 22:33:00,
2015-02-26 14:38:00,70.5,55.5,29.71,SSW,202,8.1,8.1,59,0.00,CLR,,0.00,WeatherDisplay:10.37,2015-02-26 22:38:00,
2015-02-26 14:43:00,70.5,55.5,29.71,SSW,202,8.1,8.1,59,0.00,CLR,,0.00,WeatherDisplay:10.37,2015-02-26 22:43:00,
2015-02-26 14:48:00,71.1,55.1,29.71,South,180,5.8,5.8,57,0.00,CLR,,0.00,WeatherDisplay:10.37,2015-02-26 22:48:00,
2015-02-26 14:53:00,71.4,56.3,29.71,SSE,158,4.6,4.6,59,0.00,CLR,,0.00,WeatherDisplay:10.37,2015-02-26 22:53:00,
2015-02-26 14:58:00,70.3,56.7,29.71,SSW,202,5.8,5.8,62,0.00,CLR,,0.00,WeatherDisplay:10.37,2015-02-26 22:58:00,
2015-02-26 15:03:00,70.5,56.9,29.71,SSE,158,10.4,10.4,62,0.00,CLR,,0.00,WeatherDisplay:10.37,2015-02-26 23:03:00,
2015-02-26 15:08:00,70.7,56.6,29.71,West,270,7.3,7.3,61,0.00,CLR,,0.00,WeatherDisplay:10.37,2015-02-26 23:08:00,
2015-02-26 15:13:00,71.1,56.0,29.71,South,180,5.8,5.8,59,0.00,CLR,,0.00,WeatherDisplay:10.37,2015-02-26 23:13:00,
2015-02-26 15:18:00,70.3,56.7,29.71,South,180,5.8,5.8,62,0.00,CLR,,0.00,WeatherDisplay:10.37,2015-02-26 23:18:00,
2015-02-26 15:23:00,70.5,56.4,29.71,WNW,292,6.9,6.9,61,0.00,CLR,,0.00,WeatherDisplay:10.37,2015-02-26 23:23:00,
2015-02-26 15:28:00,68.9,54.4,29.71,SSW,202,7.8,7.8,60,0.00,CLR,,0.00,WeatherDisplay:10.37,2015-02-26 23:28:00,
2015-02-26 15:33:00,68.4,54.4,29.71,SW,225,6.9,6.9,61,0.00,CLR,,0.00,WeatherDisplay:10.37,2015-02-26 23:33:00,
2015-02-26 15:38:00,68.2,55.6,29.71,South,180,5.8,5.8,64,0.00,CLR,,0.00,WeatherDisplay:10.37,2015-02-26 23:38:00,
2015-02-26 15:43:00,68.5,55.8,29.71,SSW,202,5.8,5.8,64,0.00,CLR,,0.00,WeatherDisplay:10.37,2015-02-26 23:43:00,
2015-02-26 15:48:00,68.5,55.8,29.71,South,180,6.3,6.3,64,0.00,CLR,,0.00,WeatherDisplay:10.37,2015-02-26 23:48:00,
2015-02-26 15:53:00,67.6,55.4,29.71,SSW,202,8.1,8.1,65,0.00,CLR,,0.00,WeatherDisplay:10.37,2015-02-26 23:53:00,
2015-02-26 15:58:00,67.8,55.6,29.71,SSE,158,5.8,5.8,65,0.00,CLR,,0.00,WeatherDisplay:10.37,2015-02-26 23:58:00,
2015-02-26 16:03:00,67.5,55.3,29.71,SW,225,5.8,5.8,65,0.00,CLR,,0.00,WeatherDisplay:10.37,2015-02-27 00:03:00,
2015-02-26 16:08:00,67.6,55.0,29.71,SSW,202,5.8,5.8,64,0.00,CLR,,0.00,WeatherDisplay:10.37,2015-02-27 00:08:00,
2015-02-26 16:13:00,67.6,55.4,29.71,SW,225,4.6,4.6,65,0.00,CLR,,0.00,WeatherDisplay:10.37,2015-02-27 00:13:00,
2015-02-26 16:18:00,68.2,54.7,29.71,SW,225,4.7,4.7,62,0.00,CLR,,0.00,WeatherDisplay:10.37,2015-02-27 00:18:00,
2015-02-26 16:23:00,69.1,55.1,29.71,SSW,202,5.8,5.8,61,0.00,CLR,,0.00,WeatherDisplay:10.37,2015-02-27 00:23:00,
2015-02-26 16:28:00,67.1,55.4,29.71,SSW,202,5.8,5.8,66,0.00,CLR,,0.00,WeatherDisplay:10.37,2015-02-27 00:28:00,
2015-02-26 16:33:00,67.5,55.7,29.71,South,180,6.8,6.8,66,0.00,CLR,,0.00,WeatherDisplay:10.37,2015-02-27 00:33:00,
2015-02-26 16:38:00,68.2,55.6,29.71,SSW,202,6.8,6.8,64,0.00,CLR,,0.00,WeatherDisplay:10.37,2015-02-27 00:38:00,